Atlantic Beach, FL (32233)

4:49 AM EST on February 10, 2016 (GMT -0500)
Reed Island | | Change Station
CLOSE
Current Station
Personal Weather Station
Location: Jacksonville, FL
Elevation: 10 ft
Nearby Weather Stations
Active Advisory: Freeze Warning, Freeze Watch

Elev 10 ft 30.39 °N, 81.52 °W | Updated 20 seconds ago

Clear
Clear
35.8 °F
Feels Like 36 °F
N
2.0
Wind Variable Wind from WSW
Gusts 2.0 mph

Today
High -- | Low -- °F
--% Chance of Precip.
Yesterday
High -- | Low -- °F
Precip. -- in
Pressure 30.09 in
Visibility 10.0 miles
Clouds Clear
Windchill 36 °F
Dew Point 22 °F
Humidity 58%
Rainfall 0.00 in
Snow Depth Not available.
7:10 AM 6:10 PM
Waxing Crescent, 4% visible
METAR KCRG 100853Z AUTO 26004KT 10SM CLR 03/M06 A3009 RMK AO2 SLP190 T00331056 51004
Pressure 30.09 in
Visibility 10.0 miles
Clouds Clear
Windchill 36 °F
Dew Point 22 °F
Humidity 58%
Rainfall 0.00 in
Snow Depth Not available.
7:10 AM 6:10 PM
Waxing Crescent, 4% visible
METAR KCRG 100853Z AUTO 26004KT 10SM CLR 03/M06 A3009 RMK AO2 SLP190 T00331056 51004

10-Day Weather Forecast

Almanac

Astronomy

Feb. 10, 2016 Rise Set
Actual Time
Civil Twilight
Nautical Twilight
Astronomical Twilight
Moon
Length of Visible Light
Length of Day
Tomorrow will be .
, % of the Moon is Illuminated

Today's Extremes

State Highs State Lows

Community

WunderPhotos

Upload Photos

1,891,826 photos uploaded!

WunderBlog® & News

Nearby

Air Quality

  Air Quality AQ Index Pollutant
Not available.

Snow Depth

Station Depth Elevation

Earthquake Activity

City Distance Mag. Time & Date
Minimum magnitude displayed is 2.5.

Coastal Water Temperatures

Place Temperature

Stations

Nearby Weather Stations

Station Location Temp. Windchill Dew Point Humidity Wind Precip. Elev Updated Type
                   

Watches & Warnings

Freeze Warning, Freeze Watch
Issued: 3:54 AM EST Feb. 10, 2016 – National Weather Service

... Freeze warning remains in effect until 9 am EST this morning...
... Freeze watch remains in effect from late tonight through
Thursday morning...

* temperature... upper 20s to lower 30s this morning and again
early Thursday morning.

* Impacts... appropriate action should also be taken to ensure
tender vegetation and outdoor pets have adequate protection
from the cold temperatures.

Precautionary/preparedness actions...

A freeze warning means sub-freezing temperatures are imminent or
expected for at least 2 hours. Appropriate action should be
taken to ensure tender vegetation and outdoor pets have adequate
protection from the cold temperatures. Young children... the
elderly and the homeless are especially vulnerable to the cold.
Take measures to protect them.



Jds